Terminal Aerodrome Forecast
Issued by NWS

Home | Current Version | Previous Version | Text Only | Print | Product List | Glossary Off
Versions: 1 2 3 4 5 6 7 8 9 10 11 12 13 14 15 16 17 18

000
FTUS42 KMHX 141446 AAA
TAFISO
TAF AMD
KISO 141446Z 1415/1512 00000KT P6SM OVC015
     FM141600 VRB03KT P6SM VCSH BKN025
     FM141800 VRB03KT P6SM -SHRA VCTS BKN025CB
     FM150000 00000KT P6SM BKN035
     FM150800 00000KT 1SM BR BKN003
      AMD LTD TO CLD VIS AND WIND=

USA.gov is the U.S. government's official web portal to all federal, state and local government web resources and services.